createdAt,value
2023-02-11T00:01:20.302Z,8.80
2023-02-11T00:03:47.590Z,8.70
2023-02-11T00:06:14.833Z,8.60
2023-02-11T00:08:42.267Z,9.35
2023-02-11T00:11:13.806Z,7.85
2023-02-11T00:13:41.937Z,8.98
2023-02-11T00:16:10.768Z,9.17
2023-02-11T00:18:38.472Z,11.25
2023-02-11T00:21:16.887Z,11.52
2023-02-11T00:23:45.497Z,9.38
2023-02-11T00:26:15.037Z,9.13
2023-02-11T00:28:43.191Z,10.77
2023-02-11T00:31:11.560Z,9.30
2023-02-11T00:33:39.186Z,9.40
2023-02-11T00:36:15.154Z,7.60
2023-02-11T00:38:46.121Z,10.65
2023-02-11T00:41:14.008Z,8.30
2023-02-11T00:43:41.456Z,7.38
2023-02-11T00:46:09.076Z,6.90
2023-02-11T00:48:36.656Z,7.15
2023-02-11T00:51:04.400Z,6.47
2023-02-11T00:53:32.662Z,6.13
2023-02-11T00:56:01.235Z,10.23
2023-02-11T00:58:29.035Z,17.90
2023-02-11T01:00:56.710Z,14.43
2023-02-11T01:03:25.496Z,17.95
2023-02-11T01:05:52.728Z,14.60
2023-02-11T01:08:20.355Z,11.05
2023-02-11T01:11:01.992Z,10.57
2023-02-11T01:13:31.207Z,7.78
2023-02-11T01:15:58.148Z,16.13
2023-02-11T01:18:25.821Z,12.80
2023-02-11T01:20:53.370Z,17.20
2023-02-11T01:23:21.624Z,18.92
2023-02-11T01:25:48.859Z,16.13
2023-02-11T01:28:26.879Z,12.88
2023-02-11T01:30:54.215Z,11.83
2023-02-11T01:33:22.742Z,9.48
2023-02-11T01:35:50.236Z,8.52
2023-02-11T01:38:26.006Z,7.60
2023-02-11T01:40:54.915Z,8.25
2023-02-11T01:43:25.695Z,7.80
2023-02-11T01:46:01.098Z,6.80
2023-02-11T01:48:30.201Z,8.90
2023-02-11T01:51:05.030Z,10.50
2023-02-11T01:53:53.095Z,8.13
2023-02-11T01:56:39.753Z,7.77
2023-02-11T01:59:13.350Z,6.93
2023-02-11T02:01:45.043Z,8.38
2023-02-11T02:04:15.138Z,7.10
2023-02-11T02:06:52.160Z,7.18
2023-02-11T02:09:25.729Z,8.10
2023-02-11T02:11:52.761Z,20.67
2023-02-11T02:14:20.706Z,20.05
2023-02-11T02:16:47.912Z,13.32
2023-02-11T02:19:24.308Z,10.18
2023-02-11T02:22:21.940Z,9.00
2023-02-11T02:24:52.219Z,8.80
2023-02-11T02:27:29.604Z,8.48
2023-02-11T02:30:24.462Z,7.18
2023-02-11T02:33:05.822Z,18.13
2023-02-11T02:35:55.989Z,18.87
2023-02-11T02:38:31.731Z,17.15
2023-02-11T02:41:10.086Z,18.50
2023-02-11T02:43:41.806Z,19.67
2023-02-11T02:46:22.340Z,19.98
2023-02-11T02:48:50.210Z,20.20
2023-02-11T02:51:46.815Z,19.88
2023-02-11T02:54:25.788Z,13.82
2023-02-11T02:57:04.882Z,11.45
2023-02-11T02:59:37.677Z,9.35
2023-02-11T03:02:18.088Z,7.80
2023-02-11T03:04:54.120Z,8.60
2023-02-11T03:07:41.815Z,7.90
2023-02-11T03:10:19.747Z,12.40
2023-02-11T03:12:48.608Z,18.60
2023-02-11T03:15:18.161Z,20.00
2023-02-11T03:17:48.789Z,20.05
2023-02-11T03:20:18.989Z,19.75
2023-02-11T03:22:55.779Z,13.93
2023-02-11T03:25:29.458Z,9.57
2023-02-11T03:28:00.392Z,8.60
2023-02-11T03:30:35.373Z,8.63
2023-02-11T03:33:24.288Z,7.10
2023-02-11T03:35:55.855Z,6.40
2023-02-11T03:38:33.800Z,6.95
2023-02-11T03:41:02.672Z,6.97
2023-02-11T03:43:46.444Z,5.50
2023-02-11T03:46:17.197Z,5.97
2023-02-11T03:48:49.653Z,7.38
2023-02-11T03:51:17.608Z,8.00
2023-02-11T03:53:46.672Z,7.20
2023-02-11T03:56:19.648Z,6.20
2023-02-11T03:58:48.515Z,6.80
2023-02-11T04:01:16.090Z,6.60
2023-02-11T04:03:43.314Z,18.90
2023-02-11T04:06:10.263Z,18.20
2023-02-11T04:08:37.450Z,20.20
2023-02-11T04:11:04.341Z,20.55
2023-02-11T04:13:31.671Z,21.02
2023-02-11T04:15:58.504Z,19.80
2023-02-11T04:18:25.684Z,18.73
2023-02-11T04:20:52.510Z,15.00
2023-02-11T04:23:19.664Z,16.60
2023-02-11T04:25:46.508Z,15.30
2023-02-11T04:28:14.014Z,10.35
2023-02-11T04:30:40.889Z,9.20
2023-02-11T04:33:08.125Z,14.57
2023-02-11T04:35:34.942Z,15.75
2023-02-11T04:38:02.087Z,16.58
2023-02-11T04:40:28.874Z,15.05
2023-02-11T04:42:55.977Z,10.27
2023-02-11T04:45:23.066Z,8.43
2023-02-11T04:47:50.266Z,11.18
2023-02-11T04:50:17.430Z,8.85
2023-02-11T04:52:44.580Z,10.90
2023-02-11T04:55:11.769Z,17.67
2023-02-11T04:57:38.867Z,18.63
2023-02-11T05:00:06.627Z,18.05
2023-02-11T05:02:33.910Z,19.33
2023-02-11T05:05:00.781Z,18.98
2023-02-11T05:07:28.367Z,19.10
2023-02-11T05:09:55.205Z,12.98
2023-02-11T05:12:22.431Z,9.07
2023-02-11T05:14:49.217Z,10.65
2023-02-11T05:17:16.496Z,10.02
2023-02-11T05:19:43.396Z,9.00
2023-02-11T05:22:10.583Z,8.82
2023-02-11T05:24:37.437Z,7.32
2023-02-11T05:27:04.580Z,7.03
2023-02-11T05:29:31.443Z,7.28
2023-02-11T05:32:00.232Z,6.70
2023-02-11T05:34:27.320Z,6.85
2023-02-11T05:36:54.717Z,5.72
2023-02-11T05:39:21.601Z,6.90
2023-02-11T05:41:48.723Z,7.35
2023-02-11T05:44:15.649Z,7.60
2023-02-11T05:46:42.847Z,9.15
2023-02-11T05:49:09.838Z,8.10
2023-02-11T05:51:37.036Z,14.73
2023-02-11T05:54:03.942Z,8.95
2023-02-11T05:56:31.202Z,8.03
2023-02-11T05:58:59.937Z,7.35
2023-02-11T06:01:27.284Z,8.45
2023-02-11T06:03:54.414Z,7.05
2023-02-11T06:06:21.687Z,8.27
2023-02-11T06:08:48.492Z,9.47
2023-02-11T06:11:16.288Z,10.15
2023-02-11T06:13:43.581Z,8.05
2023-02-11T06:16:10.858Z,8.05
2023-02-11T06:18:37.767Z,7.13
2023-02-11T06:21:10.129Z,7.60
2023-02-11T06:23:37.930Z,8.07
2023-02-11T06:26:07.075Z,9.63
2023-02-11T06:28:36.031Z,7.15
2023-02-11T06:31:07.159Z,9.60
2023-02-11T06:33:34.682Z,12.63
2023-02-11T06:36:02.438Z,9.15
2023-02-11T06:38:29.355Z,7.57
2023-02-11T06:40:56.923Z,7.38
2023-02-11T06:43:23.737Z,6.80
2023-02-11T06:45:55.764Z,7.27
2023-02-11T06:48:23.742Z,9.82
2023-02-11T06:50:50.858Z,12.23
2023-02-11T06:53:17.836Z,9.07
2023-02-11T06:55:44.994Z,8.07
2023-02-11T06:58:11.825Z,8.13
2023-02-11T07:00:39.094Z,16.25
2023-02-11T07:03:05.973Z,16.25
2023-02-11T07:05:34.395Z,18.45
2023-02-11T07:08:01.331Z,20.83
2023-02-11T07:10:28.510Z,20.30
2023-02-11T07:12:57.779Z,20.77
2023-02-11T07:15:26.008Z,16.30
2023-02-11T07:17:52.897Z,14.15
2023-02-11T07:20:20.103Z,11.90
2023-02-11T07:22:46.941Z,11.43
2023-02-11T07:25:14.156Z,12.02
2023-02-11T07:27:40.941Z,16.88
2023-02-11T07:30:08.735Z,16.40
2023-02-11T07:32:35.567Z,17.80
2023-02-11T07:35:04.019Z,16.63
2023-02-11T07:37:31.043Z,13.90
2023-02-11T07:39:58.149Z,15.57
2023-02-11T07:42:24.943Z,17.63
2023-02-11T07:44:52.171Z,17.13
2023-02-11T07:47:19.111Z,24.40
2023-02-11T07:49:46.335Z,23.08
2023-02-11T07:52:13.135Z,25.25
2023-02-11T07:54:40.550Z,21.73
2023-02-11T07:57:07.363Z,16.90
2023-02-11T07:59:34.489Z,19.07
2023-02-11T08:02:01.586Z,21.35
2023-02-11T08:04:28.802Z,24.05
2023-02-11T08:06:59.274Z,22.33
2023-02-11T08:09:26.570Z,19.00
2023-02-11T08:11:53.384Z,22.47
2023-02-11T08:14:20.712Z,21.08
2023-02-11T08:16:47.709Z,22.65
2023-02-11T08:19:16.763Z,19.85
2023-02-11T08:21:43.935Z,20.40
2023-02-11T08:24:11.272Z,21.67
2023-02-11T08:26:38.750Z,20.50
2023-02-11T08:29:11.840Z,23.25
2023-02-11T08:31:42.308Z,22.25
2023-02-11T08:34:11.611Z,23.15
2023-02-11T08:36:39.614Z,22.37
2023-02-11T08:39:18.604Z,21.05
2023-02-11T08:41:49.117Z,20.45
2023-02-11T08:44:17.558Z,23.17
2023-02-11T08:46:44.414Z,21.98
2023-02-11T08:49:11.685Z,22.53
2023-02-11T08:51:38.514Z,23.05
2023-02-11T08:54:09.565Z,24.13
2023-02-11T08:56:37.879Z,23.05
2023-02-11T08:59:05.492Z,25.92
2023-02-11T09:01:32.488Z,26.13
2023-02-11T09:04:01.226Z,24.35
2023-02-11T09:06:28.537Z,21.60
2023-02-11T09:08:57.966Z,23.65
2023-02-11T09:11:30.835Z,23.15
2023-02-11T09:13:58.175Z,21.40
2023-02-11T09:16:30.267Z,22.65
2023-02-11T09:18:59.677Z,21.02
2023-02-11T09:21:26.895Z,23.05
2023-02-11T09:23:54.340Z,25.58
2023-02-11T09:26:41.653Z,26.63
2023-02-11T09:29:09.310Z,24.30
2023-02-11T09:31:36.397Z,23.77
2023-02-11T09:34:05.824Z,24.35
2023-02-11T09:36:37.540Z,23.15
2023-02-11T09:39:07.357Z,24.90
2023-02-11T09:41:42.659Z,24.55
2023-02-11T09:44:20.133Z,24.23
2023-02-11T09:47:03.474Z,24.00
2023-02-11T09:49:45.699Z,22.90
2023-02-11T09:52:25.625Z,25.07
2023-02-11T09:55:21.840Z,28.75
2023-02-11T09:57:49.163Z,31.58
2023-02-11T10:00:32.406Z,28.23
2023-02-11T10:03:02.288Z,26.00
2023-02-11T10:05:53.671Z,26.97
2023-02-11T10:08:25.909Z,26.42
2023-02-11T10:11:07.697Z,27.80
2023-02-11T10:13:56.143Z,26.92
2023-02-11T10:16:52.105Z,24.23
2023-02-11T10:19:38.911Z,25.97
2023-02-11T10:22:18.830Z,28.42
2023-02-11T10:24:55.354Z,30.85
2023-02-11T10:27:30.760Z,27.25
2023-02-11T10:30:21.188Z,25.17
2023-02-11T10:33:27.001Z,24.77
2023-02-11T10:35:54.352Z,26.60
2023-02-11T10:38:21.646Z,26.75
2023-02-11T10:40:48.632Z,27.75
2023-02-11T10:43:17.591Z,26.38
2023-02-11T10:45:48.761Z,23.67
2023-02-11T10:48:52.870Z,26.80
2023-02-11T10:51:28.467Z,23.85
2023-02-11T10:54:04.651Z,25.35
2023-02-11T10:56:34.435Z,25.85
2023-02-11T10:59:21.660Z,29.97
2023-02-11T11:01:56.426Z,28.83
2023-02-11T11:04:29.748Z,29.52
2023-02-11T11:06:58.863Z,27.25
2023-02-11T11:09:43.259Z,27.60
2023-02-11T11:12:45.312Z,28.37
2023-02-11T11:15:18.902Z,23.60
2023-02-11T11:17:46.599Z,29.52
2023-02-11T11:20:25.227Z,26.08
2023-02-11T11:23:08.856Z,25.58
2023-02-11T11:25:39.940Z,24.37
2023-02-11T11:28:16.799Z,30.10
2023-02-11T11:30:44.150Z,27.85
2023-02-11T11:33:29.645Z,26.30
2023-02-11T11:36:03.267Z,26.40
2023-02-11T11:38:31.678Z,25.45
2023-02-11T11:41:27.756Z,26.83
2023-02-11T11:43:59.059Z,27.23
2023-02-11T11:46:39.242Z,26.25
2023-02-11T11:49:22.324Z,26.17
2023-02-11T11:52:00.186Z,29.63
2023-02-11T11:54:28.412Z,30.43
2023-02-11T11:57:04.383Z,27.42
2023-02-11T11:59:32.464Z,30.75
2023-02-11T12:02:30.123Z,26.70
2023-02-11T12:05:03.567Z,23.23
2023-02-11T12:07:40.373Z,26.30
2023-02-11T12:10:25.967Z,26.45
2023-02-11T12:13:03.759Z,25.88
2023-02-11T12:15:56.782Z,24.92
2023-02-11T12:18:47.427Z,23.70
2023-02-11T12:21:34.018Z,22.20
2023-02-11T12:24:40.976Z,23.60
2023-02-11T12:27:28.777Z,20.08
2023-02-11T12:30:14.824Z,22.10
2023-02-11T12:32:59.991Z,19.67
2023-02-11T12:35:49.051Z,20.37
2023-02-11T12:38:26.258Z,21.08
2023-02-11T12:41:43.569Z,23.05
2023-02-11T12:44:23.751Z,18.85
2023-02-11T12:47:02.105Z,21.60
2023-02-11T12:50:06.956Z,20.20
2023-02-11T12:53:08.475Z,18.98
2023-02-11T12:55:40.426Z,19.08
2023-02-11T12:58:19.181Z,17.92
2023-02-11T13:00:51.677Z,18.20
2023-02-11T13:03:25.612Z,20.70
2023-02-11T13:05:58.077Z,21.00
2023-02-11T13:08:37.220Z,20.95
2023-02-11T13:11:14.396Z,19.92
2023-02-11T13:13:55.181Z,17.67
2023-02-11T13:16:37.020Z,19.10
2023-02-11T13:19:19.225Z,17.80
2023-02-11T13:21:49.492Z,19.35
2023-02-11T13:24:46.864Z,20.52
2023-02-11T13:27:37.132Z,16.70
2023-02-11T13:30:22.431Z,16.80
2023-02-11T13:32:58.365Z,20.23
2023-02-11T13:35:33.151Z,20.20
2023-02-11T13:38:02.316Z,21.60
2023-02-11T13:40:36.719Z,19.65
2023-02-11T13:43:06.369Z,22.93
2023-02-11T13:45:44.210Z,20.90
2023-02-11T13:48:24.319Z,19.27
2023-02-11T13:50:59.224Z,19.42
2023-02-11T13:53:27.612Z,24.52
2023-02-11T13:56:07.948Z,24.23
2023-02-11T13:58:39.983Z,20.13
2023-02-11T14:01:07.899Z,18.98
2023-02-11T14:03:58.093Z,20.88
2023-02-11T14:06:48.352Z,20.05
2023-02-11T14:09:17.405Z,19.57
2023-02-11T14:11:46.355Z,18.55
2023-02-11T14:14:24.087Z,20.63
2023-02-11T14:17:00.394Z,19.50
2023-02-11T14:19:44.949Z,20.17
2023-02-11T14:22:37.799Z,20.00
2023-02-11T14:25:14.247Z,19.05
2023-02-11T14:27:44.928Z,16.92
2023-02-11T14:30:53.619Z,15.82
2023-02-11T14:33:30.293Z,16.83
2023-02-11T14:36:07.974Z,15.87
2023-02-11T14:38:54.199Z,16.15
2023-02-11T14:41:29.437Z,17.13
2023-02-11T14:44:04.348Z,19.20
2023-02-11T14:46:33.443Z,36.08
2023-02-11T14:49:03.342Z,34.10
2023-02-11T14:51:35.082Z,25.67
2023-02-11T14:54:17.214Z,21.33
2023-02-11T14:56:44.828Z,27.83
2023-02-11T14:59:21.332Z,20.70
2023-02-11T15:01:56.500Z,28.60
2023-02-11T15:04:30.387Z,26.65
2023-02-11T15:07:00.117Z,17.73
2023-02-11T15:09:52.254Z,16.02
2023-02-11T15:12:23.911Z,16.02
2023-02-11T15:14:55.288Z,18.40
2023-02-11T15:17:26.145Z,16.65
2023-02-11T15:19:57.005Z,17.50
2023-02-11T15:22:28.263Z,22.95
2023-02-11T15:25:10.884Z,16.77
2023-02-11T15:27:50.227Z,15.23
2023-02-11T15:30:23.231Z,19.48
2023-02-11T15:32:51.706Z,17.40
2023-02-11T15:35:19.665Z,16.13
2023-02-11T15:37:48.841Z,15.52
2023-02-11T15:40:29.941Z,15.43
2023-02-11T15:43:06.213Z,15.38
2023-02-11T15:45:42.820Z,14.52
2023-02-11T15:48:21.687Z,14.63
2023-02-11T15:50:54.272Z,14.77
2023-02-11T15:53:31.515Z,15.07
2023-02-11T15:56:09.963Z,14.73
2023-02-11T15:58:42.693Z,13.73
2023-02-11T16:01:11.017Z,14.98
2023-02-11T16:03:38.821Z,15.32
2023-02-11T16:06:20.923Z,15.10
2023-02-11T16:09:03.650Z,14.40
2023-02-11T16:11:38.484Z,14.10
2023-02-11T16:14:33.033Z,14.77
2023-02-11T16:17:13.222Z,12.27
2023-02-11T16:19:47.816Z,12.77
2023-02-11T16:22:19.584Z,13.60
2023-02-11T16:24:49.136Z,12.82
2023-02-11T16:27:39.612Z,13.38
2023-02-11T16:30:23.969Z,12.27
2023-02-11T16:32:53.489Z,15.97
2023-02-11T16:35:21.124Z,14.70
2023-02-11T16:37:48.550Z,16.25
2023-02-11T16:40:16.051Z,14.75
2023-02-11T16:42:43.413Z,12.70
2023-02-11T16:45:10.243Z,15.23
2023-02-11T16:47:41.113Z,14.93
2023-02-11T16:50:11.123Z,14.40
2023-02-11T16:52:38.477Z,16.20
2023-02-11T16:55:06.286Z,14.02
2023-02-11T16:57:33.516Z,15.80
2023-02-11T17:00:00.803Z,15.05
2023-02-11T17:02:31.025Z,14.15
2023-02-11T17:05:01.149Z,14.77
2023-02-11T17:07:30.439Z,15.52
2023-02-11T17:09:57.562Z,14.47
2023-02-11T17:12:25.677Z,13.75
2023-02-11T17:14:53.704Z,14.57
2023-02-11T17:17:23.273Z,14.07
2023-02-11T17:19:51.311Z,14.80
2023-02-11T17:22:19.443Z,12.83
2023-02-11T17:24:46.231Z,14.52
2023-02-11T17:27:15.498Z,13.48
2023-02-11T17:29:43.325Z,11.15
2023-02-11T17:32:10.812Z,12.27
2023-02-11T17:34:37.806Z,13.87
2023-02-11T17:37:09.246Z,12.27
2023-02-11T17:39:37.449Z,19.52
2023-02-11T17:42:06.298Z,16.35
2023-02-11T17:44:34.284Z,14.60
2023-02-11T17:47:01.832Z,13.93
2023-02-11T17:49:28.657Z,13.55
2023-02-11T17:51:55.957Z,13.00
2023-02-11T17:54:23.345Z,12.32
2023-02-11T17:56:51.229Z,13.85
2023-02-11T17:59:18.219Z,10.47
2023-02-11T18:01:46.833Z,12.50
2023-02-11T18:04:17.671Z,12.38
2023-02-11T18:06:46.342Z,11.43
2023-02-11T18:09:13.694Z,12.40
2023-02-11T18:11:42.558Z,15.00
2023-02-11T18:14:10.255Z,13.15
2023-02-11T18:16:39.843Z,20.85
2023-02-11T18:19:07.721Z,17.98
2023-02-11T18:21:36.073Z,13.40
2023-02-11T18:24:06.818Z,14.73
2023-02-11T18:26:35.685Z,15.07
2023-02-11T18:29:05.086Z,15.95
2023-02-11T18:31:35.460Z,15.70
2023-02-11T18:34:06.004Z,16.83
2023-02-11T18:36:34.053Z,15.03
2023-02-11T18:39:01.486Z,15.25
2023-02-11T18:41:29.923Z,14.63
2023-02-11T18:43:58.753Z,13.68
2023-02-11T18:46:25.998Z,14.15
2023-02-11T18:48:56.267Z,18.87
2023-02-11T18:51:24.628Z,24.63
2023-02-11T18:53:51.564Z,29.17
2023-02-11T18:56:22.336Z,23.90
2023-02-11T18:58:49.629Z,28.27
2023-02-11T19:01:27.527Z,28.93
2023-02-11T19:03:57.420Z,32.20
2023-02-11T19:06:27.420Z,32.65
2023-02-11T19:08:59.337Z,24.42
2023-02-11T19:11:49.346Z,18.90
2023-02-11T19:14:23.209Z,17.57
2023-02-11T19:16:55.911Z,16.55
2023-02-11T19:19:25.847Z,14.82
2023-02-11T19:21:56.203Z,30.35
2023-02-11T19:24:24.788Z,31.45
2023-02-11T19:26:55.408Z,30.30
2023-02-11T19:29:22.786Z,22.77
2023-02-11T19:31:51.935Z,21.65
2023-02-11T19:34:22.611Z,19.10
2023-02-11T19:36:51.368Z,26.20
2023-02-11T19:39:18.944Z,31.20
2023-02-11T19:41:47.530Z,31.70
2023-02-11T19:44:15.187Z,30.77
2023-02-11T19:46:43.673Z,29.83
2023-02-11T19:49:14.719Z,33.28
2023-02-11T19:51:43.818Z,28.13
2023-02-11T19:54:11.856Z,29.08
2023-02-11T19:56:41.060Z,30.45
2023-02-11T19:59:09.139Z,21.45
2023-02-11T20:01:41.625Z,18.10
2023-02-11T20:04:09.205Z,15.80
2023-02-11T20:06:37.706Z,13.07
2023-02-11T20:09:08.057Z,14.73
2023-02-11T20:11:37.124Z,13.57
2023-02-11T20:14:05.206Z,13.40
2023-02-11T20:16:47.385Z,12.90
2023-02-11T20:19:19.652Z,19.15
2023-02-11T20:21:48.621Z,26.00
2023-02-11T20:24:18.332Z,26.90
2023-02-11T20:26:48.573Z,19.48
2023-02-11T20:29:18.073Z,18.17
2023-02-11T20:31:46.364Z,20.60
2023-02-11T20:34:13.590Z,17.42
2023-02-11T20:36:42.583Z,16.10
2023-02-11T20:39:11.274Z,13.57
2023-02-11T20:41:40.161Z,12.43
2023-02-11T20:44:10.270Z,15.65
2023-02-11T20:46:43.125Z,12.85
2023-02-11T20:49:12.067Z,13.25
2023-02-11T20:51:40.654Z,12.95
2023-02-11T20:54:15.110Z,13.73
2023-02-11T20:56:42.464Z,14.50
2023-02-11T20:59:11.842Z,13.23
2023-02-11T21:01:41.622Z,12.00
2023-02-11T21:04:18.135Z,17.15
2023-02-11T21:06:49.995Z,18.80
2023-02-11T21:09:20.037Z,14.73
2023-02-11T21:11:49.465Z,14.98
2023-02-11T21:14:16.275Z,18.20
2023-02-11T21:16:43.448Z,24.92
2023-02-11T21:19:11.195Z,23.50
2023-02-11T21:21:42.613Z,19.35
2023-02-11T21:24:11.318Z,26.67
2023-02-11T21:26:39.589Z,27.45
2023-02-11T21:29:08.111Z,22.95
2023-02-11T21:31:36.937Z,26.40
2023-02-11T21:34:09.973Z,25.80
2023-02-11T21:36:37.814Z,22.23
2023-02-11T21:39:06.036Z,19.88
2023-02-11T21:41:33.951Z,15.60
2023-02-11T21:44:04.213Z,14.83
2023-02-11T21:46:32.148Z,27.83
2023-02-11T21:49:00.521Z,28.63
2023-02-11T21:51:28.471Z,30.00
2023-02-11T21:54:01.478Z,32.35
2023-02-11T21:56:30.968Z,28.77
2023-02-11T21:58:59.581Z,21.88
2023-02-11T22:01:29.824Z,16.40
2023-02-11T22:03:57.255Z,15.90
2023-02-11T22:06:31.264Z,13.50
2023-02-11T22:08:59.088Z,13.33
2023-02-11T22:11:26.505Z,12.82
2023-02-11T22:13:55.648Z,11.05
2023-02-11T22:16:23.579Z,12.50
2023-02-11T22:18:51.566Z,11.40
2023-02-11T22:21:21.968Z,11.80
2023-02-11T22:23:49.326Z,11.48
2023-02-11T22:26:19.159Z,12.07
2023-02-11T22:28:47.201Z,9.68
2023-02-11T22:31:17.304Z,10.90
2023-02-11T22:33:44.495Z,15.63
2023-02-11T22:36:18.916Z,19.85
2023-02-11T22:38:45.853Z,16.02
2023-02-11T22:41:13.588Z,12.38
2023-02-11T22:43:42.968Z,18.23
2023-02-11T22:46:12.912Z,16.27
2023-02-11T22:48:40.348Z,13.02
2023-02-11T22:51:09.616Z,18.63
2023-02-11T22:53:36.469Z,26.48
2023-02-11T22:56:09.140Z,23.25
2023-02-11T22:58:36.866Z,24.63
2023-02-11T23:01:05.501Z,18.77
2023-02-11T23:03:33.761Z,18.70
2023-02-11T23:06:01.451Z,22.10
2023-02-11T23:08:29.445Z,16.17
2023-02-11T23:10:57.087Z,11.23
2023-02-11T23:13:24.043Z,13.07
2023-02-11T23:15:51.222Z,12.02
2023-02-11T23:18:18.031Z,10.60
2023-02-11T23:20:45.345Z,11.75
2023-02-11T23:23:12.194Z,9.77
2023-02-11T23:25:44.056Z,11.55
2023-02-11T23:28:12.504Z,10.35
2023-02-11T23:30:39.737Z,11.65
2023-02-11T23:33:06.530Z,11.38
2023-02-11T23:35:33.672Z,11.03
2023-02-11T23:38:00.481Z,11.45
2023-02-11T23:40:27.741Z,12.50
2023-02-11T23:42:54.653Z,13.23
2023-02-11T23:45:22.733Z,14.77
2023-02-11T23:47:49.804Z,11.93
2023-02-11T23:50:17.315Z,10.45
2023-02-11T23:52:44.460Z,12.00
2023-02-11T23:55:11.702Z,9.27
2023-02-11T23:57:38.542Z,9.45
